»·PEaware :: DAL889 KLAX-KLAS

DAL889 :: KLAX-KLAS

FLIGHT INFORMATION

Flight Status: Arrived
Operator:
Delta Air Lines
More flights by this operator :: More flights under this callsign
Pilot: Nehseem A. (13724)
Aircraft: BOEING 737-300
(B733)
More flights by this aircraft type
Origin: KLAX Los Angeles Intl
United States
Destination: KLAS McCarran Intl
United States
More flights between these airports :: More routes between these airports
Route: +ORCKA2 MISEN KEPEC6
File this flight plan on PilotEdge
Remarks:
Altitude:
(Current/Filed)
27,000ft
Speed:
(Current/Filed)
438kts
Departed: 04-Dec-17 10:38 AM
Arrived: 04-Dec-17 11:20 AM
Distance/Time
Traveled:
202nm/0:42
Distance/Time
To Go:
Arrived

Flight Plot

Page will automatically refresh every two minutes.

Flight plan parsing failed; only flown route is shown


Map Options




Map Legend


Flown Route
Filed Route
Departure Airport
Arrival Airport
Navaid (VOR, NDB)
Fix

Horizontal Profiles

Position Reports

Time Latitude Longitude Heading Altitude Ground
Speed
04-Dec-17 10:22 33.940379 -118.399763 35 132ft 0kts
04-Dec-17 10:23 33.940379 -118.399763 35 132ft 0kts
04-Dec-17 10:24 33.940379 -118.399763 35 132ft 0kts
04-Dec-17 10:25 33.940379 -118.399763 35 132ft 0kts
04-Dec-17 10:26 33.940379 -118.399763 35 132ft 0kts
04-Dec-17 10:27 33.940379 -118.399763 35 132ft 0kts
04-Dec-17 10:28 33.940379 -118.399763 35 132ft 0kts
04-Dec-17 10:29 33.940379 -118.399763 35 132ft 0kts
04-Dec-17 10:30 33.940368 -118.399772 35 132ft 0kts
04-Dec-17 10:31 33.939920 -118.400144 33 132ft 0kts
04-Dec-17 10:32 33.939709 -118.400308 32 132ft 0kts
04-Dec-17 10:33 33.939709 -118.400308 32 132ft 0kts
04-Dec-17 10:34 33.939709 -118.400308 32 132ft 0kts
04-Dec-17 10:35 33.939709 -118.400308 32 132ft 0kts
04-Dec-17 10:36 33.939709 -118.400308 32 132ft 0kts
04-Dec-17 10:37 33.939753 -118.398303 110 132ft 11kts
04-Dec-17 10:38 33.939287 -118.395028 83 132ft 15kts
04-Dec-17 10:39 33.939942 -118.388637 83 132ft 23kts
04-Dec-17 10:40 33.940719 -118.380787 100 132ft 3kts
04-Dec-17 10:41 33.940690 -118.380666 113 132ft 0kts
04-Dec-17 10:42 33.940224 -118.380164 170 132ft 10kts
04-Dec-17 10:43 33.938307 -118.395283 262 132ft 148kts
04-Dec-17 10:44 33.932042 -118.458363 264 2653ft 199kts
04-Dec-17 10:45 33.923206 -118.527845 262 4701ft 226kts
04-Dec-17 10:46 33.878793 -118.579158 159 4926ft 276kts
04-Dec-17 10:47 33.870208 -118.505492 51 6278ft 272kts
04-Dec-17 10:48 33.920452 -118.445554 37 8537ft 281kts
04-Dec-17 10:49 33.971368 -118.373628 56 10569ft 309kts
04-Dec-17 10:50 34.018513 -118.281377 53 12356ft 344kts
04-Dec-17 10:51 34.073697 -118.184246 52 14292ft 374kts
04-Dec-17 10:52 34.129712 -118.085471 51 16321ft 393kts
04-Dec-17 10:53 34.192044 -117.974913 51 18352ft 412kts
04-Dec-17 10:54 34.256991 -117.859382 50 20190ft 430kts
04-Dec-17 10:55 34.322260 -117.742906 50 21851ft 446kts
04-Dec-17 10:56 34.387087 -117.630451 47 23337ft 459kts
04-Dec-17 10:57 34.461736 -117.504637 47 24875ft 474kts
04-Dec-17 10:58 34.538191 -117.375279 47 25197ft 496kts
04-Dec-17 10:59 34.618432 -117.238618 48 25235ft 511kts
04-Dec-17 11:00 34.700312 -117.098963 48 25229ft 510kts
04-Dec-17 11:01 34.781649 -116.959712 48 25242ft 509kts
04-Dec-17 11:02 34.862766 -116.820290 48 25247ft 508kts
04-Dec-17 11:03 34.942707 -116.682300 47 25256ft 496kts
04-Dec-17 11:04 35.020203 -116.548081 46 24721ft 478kts
04-Dec-17 11:05 35.092573 -116.422302 45 24212ft 450kts
04-Dec-17 11:06 35.176561 -116.332901 28 24212ft 431kts
04-Dec-17 11:07 35.261943 -116.241379 46 22992ft 412kts
04-Dec-17 11:08 35.330073 -116.146949 37 21662ft 360kts
04-Dec-17 11:09 35.395513 -116.059212 38 19767ft 341kts
04-Dec-17 11:10 35.457285 -115.976056 39 17984ft 327kts
04-Dec-17 11:11 35.516288 -115.896407 40 16217ft 315kts
04-Dec-17 11:12 35.564071 -115.831768 41 14740ft 306kts
04-Dec-17 11:13 35.629099 -115.743578 43 12933ft 292kts
04-Dec-17 11:14 35.676141 -115.683360 29 12901ft 291kts
04-Dec-17 11:15 35.720682 -115.608920 47 12897ft 299kts
04-Dec-17 11:16 35.780493 -115.545309 72 12339ft 305kts
04-Dec-17 11:17 35.789266 -115.441020 81 10377ft 302kts
04-Dec-17 11:18 35.814506 -115.353566 22 8577ft 268kts
04-Dec-17 11:19 35.865188 -115.295113 49 6821ft 264kts
04-Dec-17 11:20 35.920956 -115.255558 19 5871ft 223kts
04-Dec-17 11:21 35.973650 -115.227591 20 4847ft 201kts
04-Dec-17 11:22 36.023253 -115.200459 25 3485ft 190kts
04-Dec-17 11:23 36.061902 -115.178264 23 2623ft 140kts
04-Dec-17 11:24 36.091020 -115.161376 24 2148ft 62kts
04-Dec-17 11:25 36.095581 -115.157227 81 2148ft 7kts
04-Dec-17 11:26 36.093780 -115.154087 203 2148ft 9kts
04-Dec-17 11:27 36.089574 -115.156390 201 2148ft 21kts
04-Dec-17 11:28 36.085224 -115.158242 171 2148ft 12kts
04-Dec-17 11:29 36.080008 -115.158258 179 2148ft 23kts
04-Dec-17 11:30 36.078036 -115.155113 90 2148ft 17kts
04-Dec-17 11:31 36.080519 -115.152035 358 2148ft 16kts
04-Dec-17 11:32 36.082357 -115.152928 359 2148ft 2kts
04-Dec-17 11:33 36.042773 -115.189089 22 3097ft 153kts

Navigation Log

Ident Type
Flight plan parsing failed, navigation log unavailable